Minden, NV (89423)

7:07 PM PST on December 24, 2014 (GMT -0800)
Saratoga Springs | Change Station
CLOSE
Current Station
Personal Weather Station
Location: Minden, NV
Elevation: 4700 ft
Nearby Weather Stations
Active Advisory: Winter Weather Advisory Active Notice: Record Report

Elev 4700 ft 39.05 °N, 119.74 °W | Updated 1 second ago

Overcast
Overcast
33.1 °F
Feels Like 30 °F
N
3.6
Wind Variable Wind from NW
Gusts 6.7 mph

Today
High -- | Low -- °F
--% Chance of Precip.
Yesterday
High -- | Low -- °F
Precip. -- in
7:15 AM 4:41 PM
Waxing Crescent, 13% visible
Pressure 29.84 in
Visibility 10.0 miles
Clouds Few 300 ft
Mostly Cloudy 3600 ft
Overcast 4900 ft
Windchill 30 °F
Dew Point 27 °F
Humidity 79%
Rainfall 0.10 in
Snow Depth Not available.
UV 0 out of 12
Pollen 2.70 out of 12
Air Quality Not available.
Flu Activity Not available.
METAR KCXP 250255Z AUTO 32020G26KT 10SM -RA FEW003 BKN036 OVC049 02/M04 A2984 RMK AO2

More Conditions Fewer Conditions

Pressure 29.84 in
Visibility 10.0 miles
Clouds Few 300 ft
Mostly Cloudy 3600 ft
Overcast 4900 ft
Windchill 30 °F
Dew Point 27 °F
Humidity 79%
Rainfall 0.10 in
Snow Depth Not available.
UV 0 out of 12
Pollen 2.70 out of 12
Air Quality Not available.
Flu Activity Not available.
METAR KCXP 250255Z AUTO 32020G26KT 10SM -RA FEW003 BKN036 OVC049 02/M04 A2984 RMK AO2

More Conditions Fewer Conditions

10-Day Weather Forecast

Almanac

Astronomy

Dec. 24, 2014 Rise Set
Actual Time
Civil Twilight
Nautical Twilight
Astronomical Twilight
Moon
Length of Visible Light
Length of Day
Tomorrow will be .
, % of the Moon is Illuminated

Today's Extremes

State Highs State Lows

Community

WunderPhotos

Upload Photos

1,780,222 photos uploaded!

WunderBlogs® & News

Nearby

Air Quality

  Air Quality AQ Index Pollutant
Not available.

Snow Depth

Station Depth Elevation

Earthquake Activity

City Distance Mag. Time & Date
Minimum magnitude displayed is 2.5.

Coastal Water Temperatures

Place Temperature

Nearby Weather Stations